sensor_id;sensor_type;location;lat;lon;timestamp;pressure;altitude;pressure_sealevel;temperature;humidity
48624;BME280;34422;45.802;16.114;2022-12-18T00:01:28;101778.81;;;1.57;100.00
48624;BME280;34422;45.802;16.114;2022-12-18T00:03:55;101782.31;;;1.46;100.00
48624;BME280;34422;45.802;16.114;2022-12-18T00:06:23;101782.97;;;1.37;100.00
48624;BME280;34422;45.802;16.114;2022-12-18T00:08:50;101788.47;;;1.35;100.00
48624;BME280;34422;45.802;16.114;2022-12-18T00:11:19;101788.06;;;1.29;100.00
48624;BME280;34422;45.802;16.114;2022-12-18T00:13:47;101802.03;;;1.32;100.00
48624;BME280;34422;45.802;16.114;2022-12-18T00:16:17;101817.63;;;1.26;100.00
48624;BME280;34422;45.802;16.114;2022-12-18T00:18:48;101810.56;;;1.25;100.00
48624;BME280;34422;45.802;16.114;2022-12-18T00:21:18;101811.31;;;1.27;100.00
48624;BME280;34422;45.802;16.114;2022-12-18T00:23:46;101815.69;;;1.28;100.00
48624;BME280;34422;45.802;16.114;2022-12-18T00:26:19;101823.78;;;1.26;100.00
48624;BME280;34422;45.802;16.114;2022-12-18T00:28:47;101821.25;;;1.25;100.00
48624;BME280;34422;45.802;16.114;2022-12-18T00:31:18;101825.97;;;1.21;100.00
48624;BME280;34422;45.802;16.114;2022-12-18T00:33:45;101832.00;;;1.23;100.00
48624;BME280;34422;45.802;16.114;2022-12-18T00:36:16;101832.66;;;1.27;100.00
48624;BME280;34422;45.802;16.114;2022-12-18T00:38:44;101828.91;;;1.29;100.00
48624;BME280;34422;45.802;16.114;2022-12-18T00:41:13;101840.44;;;1.30;100.00
48624;BME280;34422;45.802;16.114;2022-12-18T00:44:01;101835.94;;;1.30;100.00
48624;BME280;34422;45.802;16.114;2022-12-18T00:46:29;101836.06;;;1.29;100.00
48624;BME280;34422;45.802;16.114;2022-12-18T00:48:56;101842.34;;;1.28;100.00
48624;BME280;34422;45.802;16.114;2022-12-18T00:51:23;101841.72;;;1.24;100.00
48624;BME280;34422;45.802;16.114;2022-12-18T00:53:50;101835.53;;;1.24;100.00
48624;BME280;34422;45.802;16.114;2022-12-18T00:56:17;101839.53;;;1.18;100.00
48624;BME280;34422;45.802;16.114;2022-12-18T00:58:50;101848.59;;;1.16;100.00
48624;BME280;34422;45.802;16.114;2022-12-18T01:01:18;101853.53;;;1.09;100.00
48624;BME280;34422;45.802;16.114;2022-12-18T01:03:45;101856.53;;;1.04;100.00
48624;BME280;34422;45.802;16.114;2022-12-18T01:06:14;101849.34;;;0.94;100.00
48624;BME280;34422;45.802;16.114;2022-12-18T01:08:41;101860.59;;;0.97;100.00
48624;BME280;34422;45.802;16.114;2022-12-18T01:11:11;101868.09;;;0.92;100.00
48624;BME280;34422;45.802;16.114;2022-12-18T01:13:39;101870.03;;;0.90;100.00
48624;BME280;34422;45.802;16.114;2022-12-18T01:16:06;101868.53;;;0.86;100.00
48624;BME280;34422;45.802;16.114;2022-12-18T01:18:33;101860.25;;;0.78;100.00
48624;BME280;34422;45.802;16.114;2022-12-18T01:21:00;101862.38;;;0.73;100.00
48624;BME280;34422;45.802;16.114;2022-12-18T01:23:27;101867.22;;;0.68;100.00
48624;BME280;34422;45.802;16.114;2022-12-18T01:25:54;101870.09;;;0.65;100.00
48624;BME280;34422;45.802;16.114;2022-12-18T01:28:20;101868.81;;;0.58;100.00
48624;BME280;34422;45.802;16.114;2022-12-18T01:30:47;101870.31;;;0.49;100.00
48624;BME280;34422;45.802;16.114;2022-12-18T01:33:14;101878.53;;;0.46;100.00
48624;BME280;34422;45.802;16.114;2022-12-18T01:35:42;101872.78;;;0.40;100.00
48624;BME280;34422;45.802;16.114;2022-12-18T01:38:09;101880.03;;;0.38;100.00
48624;BME280;34422;45.802;16.114;2022-12-18T01:40:36;101874.63;;;0.26;100.00
48624;BME280;34422;45.802;16.114;2022-12-18T01:43:03;101886.63;;;0.19;100.00
48624;BME280;34422;45.802;16.114;2022-12-18T01:45:31;101891.41;;;0.14;100.00
48624;BME280;34422;45.802;16.114;2022-12-18T01:48:01;101892.69;;;0.09;100.00
48624;BME280;34422;45.802;16.114;2022-12-18T01:50:32;101893.75;;;0.06;100.00
48624;BME280;34422;45.802;16.114;2022-12-18T01:53:14;101888.63;;;0.03;100.00
48624;BME280;34422;45.802;16.114;2022-12-18T01:55:52;101894.19;;;0.00;100.00
48624;BME280;34422;45.802;16.114;2022-12-18T01:58:24;101889.94;;;-0.03;100.00
48624;BME280;34422;45.802;16.114;2022-12-18T02:00:54;101896.00;;;-0.01;100.00
48624;BME280;34422;45.802;16.114;2022-12-18T02:03:21;101906.50;;;0.01;100.00
48624;BME280;34422;45.802;16.114;2022-12-18T02:08:50;101902.69;;;0.05;100.00
48624;BME280;34422;45.802;16.114;2022-12-18T02:16:54;101922.28;;;0.04;100.00
48624;BME280;34422;45.802;16.114;2022-12-18T02:19:48;101909.31;;;-0.01;100.00
48624;BME280;34422;45.802;16.114;2022-12-18T02:23:09;101924.19;;;0.02;100.00
48624;BME280;34422;45.802;16.114;2022-12-18T02:28:29;101934.41;;;-0.05;100.00
48624;BME280;34422;45.802;16.114;2022-12-18T02:31:00;101943.53;;;-0.09;100.00
48624;BME280;34422;45.802;16.114;2022-12-18T02:33:29;101937.56;;;-0.12;100.00
48624;BME280;34422;45.802;16.114;2022-12-18T02:35:58;101939.50;;;-0.14;100.00
48624;BME280;34422;45.802;16.114;2022-12-18T02:38:28;101935.13;;;-0.15;100.00
48624;BME280;34422;45.802;16.114;2022-12-18T02:40:57;101934.59;;;-0.20;100.00
48624;BME280;34422;45.802;16.114;2022-12-18T02:43:24;101927.13;;;-0.28;100.00
48624;BME280;34422;45.802;16.114;2022-12-18T02:45:57;101939.22;;;-0.37;100.00
48624;BME280;34422;45.802;16.114;2022-12-18T02:48:31;101944.00;;;-0.42;100.00
48624;BME280;34422;45.802;16.114;2022-12-18T02:53:39;101943.63;;;-0.50;100.00
48624;BME280;34422;45.802;16.114;2022-12-18T02:56:20;101950.84;;;-0.52;100.00
48624;BME280;34422;45.802;16.114;2022-12-18T02:59:02;101951.09;;;-0.55;100.00
48624;BME280;34422;45.802;16.114;2022-12-18T03:01:36;101960.19;;;-0.59;100.00
48624;BME280;34422;45.802;16.114;2022-12-18T03:04:20;101962.97;;;-0.60;100.00
48624;BME280;34422;45.802;16.114;2022-12-18T03:06:54;101960.19;;;-0.59;100.00
48624;BME280;34422;45.802;16.114;2022-12-18T03:09:27;101961.06;;;-0.58;100.00
48624;BME280;34422;45.802;16.114;2022-12-18T03:11:58;101958.41;;;-0.58;100.00
48624;BME280;34422;45.802;16.114;2022-12-18T03:14:50;101972.34;;;-0.55;100.00
48624;BME280;34422;45.802;16.114;2022-12-18T03:17:20;101964.25;;;-0.53;100.00
48624;BME280;34422;45.802;16.114;2022-12-18T03:19:49;101964.16;;;-0.52;100.00
48624;BME280;34422;45.802;16.114;2022-12-18T03:22:18;101971.94;;;-0.49;100.00
48624;BME280;34422;45.802;16.114;2022-12-18T03:24:46;101969.28;;;-0.49;100.00
48624;BME280;34422;45.802;16.114;2022-12-18T03:27:18;101970.22;;;-0.50;100.00
48624;BME280;34422;45.802;16.114;2022-12-18T03:29:49;101960.91;;;-0.43;100.00
48624;BME280;34422;45.802;16.114;2022-12-18T03:32:24;101962.41;;;-0.39;100.00
48624;BME280;34422;45.802;16.114;2022-12-18T03:35:00;101969.13;;;-0.33;100.00
48624;BME280;34422;45.802;16.114;2022-12-18T03:37:29;101965.63;;;-0.33;100.00
48624;BME280;34422;45.802;16.114;2022-12-18T03:39:57;101963.91;;;-0.34;100.00
48624;BME280;34422;45.802;16.114;2022-12-18T03:42:44;101968.66;;;-0.40;100.00
48624;BME280;34422;45.802;16.114;2022-12-18T03:48:16;101988.78;;;-0.36;100.00
48624;BME280;34422;45.802;16.114;2022-12-18T03:50:51;101992.22;;;-0.33;100.00
48624;BME280;34422;45.802;16.114;2022-12-18T03:53:28;101990.50;;;-0.34;100.00
48624;BME280;34422;45.802;16.114;2022-12-18T03:56:00;101994.69;;;-0.30;100.00
48624;BME280;34422;45.802;16.114;2022-12-18T03:58:29;101981.56;;;-0.33;100.00
48624;BME280;34422;45.802;16.114;2022-12-18T04:00:59;101987.09;;;-0.37;100.00
48624;BME280;34422;45.802;16.114;2022-12-18T04:03:28;101993.78;;;-0.44;100.00
48624;BME280;34422;45.802;16.114;2022-12-18T04:05:57;101995.56;;;-0.44;100.00
48624;BME280;34422;45.802;16.114;2022-12-18T04:08:26;102005.75;;;-0.51;100.00
48624;BME280;34422;45.802;16.114;2022-12-18T04:10:53;102005.31;;;-0.57;100.00
48624;BME280;34422;45.802;16.114;2022-12-18T04:13:32;102016.13;;;-0.60;100.00
48624;BME280;34422;45.802;16.114;2022-12-18T04:16:00;102019.06;;;-0.65;100.00
48624;BME280;34422;45.802;16.114;2022-12-18T04:18:27;102017.84;;;-0.74;100.00
48624;BME280;34422;45.802;16.114;2022-12-18T04:20:54;102031.53;;;-0.80;100.00
48624;BME280;34422;45.802;16.114;2022-12-18T04:23:21;102030.88;;;-0.83;100.00
48624;BME280;34422;45.802;16.114;2022-12-18T04:25:48;102028.41;;;-0.86;100.00
48624;BME280;34422;45.802;16.114;2022-12-18T04:28:15;102023.19;;;-0.88;100.00
48624;BME280;34422;45.802;16.114;2022-12-18T04:30:42;102022.06;;;-0.98;100.00
48624;BME280;34422;45.802;16.114;2022-12-18T04:33:18;102028.41;;;-1.00;100.00
48624;BME280;34422;45.802;16.114;2022-12-18T04:35:44;102029.44;;;-1.03;100.00
48624;BME280;34422;45.802;16.114;2022-12-18T04:38:11;102028.78;;;-1.07;100.00
48624;BME280;34422;45.802;16.114;2022-12-18T04:40:38;102027.06;;;-1.08;100.00
48624;BME280;34422;45.802;16.114;2022-12-18T04:43:05;102029.19;;;-1.13;100.00
48624;BME280;34422;45.802;16.114;2022-12-18T04:45:32;102032.00;;;-1.16;100.00
48624;BME280;34422;45.802;16.114;2022-12-18T04:48:00;102036.38;;;-1.15;100.00
48624;BME280;34422;45.802;16.114;2022-12-18T04:50:27;102036.38;;;-1.15;100.00
48624;BME280;34422;45.802;16.114;2022-12-18T04:52:54;102038.28;;;-1.17;100.00
48624;BME280;34422;45.802;16.114;2022-12-18T04:55:21;102045.28;;;-1.16;100.00
48624;BME280;34422;45.802;16.114;2022-12-18T04:57:48;102049.09;;;-1.20;100.00
48624;BME280;34422;45.802;16.114;2022-12-18T05:00:15;102049.16;;;-1.21;100.00
48624;BME280;34422;45.802;16.114;2022-12-18T05:02:42;102052.78;;;-1.22;100.00
48624;BME280;34422;45.802;16.114;2022-12-18T05:05:09;102056.50;;;-1.25;100.00
48624;BME280;34422;45.802;16.114;2022-12-18T05:07:36;102059.06;;;-1.23;100.00
48624;BME280;34422;45.802;16.114;2022-12-18T05:10:06;102058.75;;;-1.19;100.00
48624;BME280;34422;45.802;16.114;2022-12-18T05:12:33;102057.13;;;-1.21;100.00
48624;BME280;34422;45.802;16.114;2022-12-18T05:15:00;102058.19;;;-1.24;100.00
48624;BME280;34422;45.802;16.114;2022-12-18T05:17:30;102070.72;;;-1.26;100.00
48624;BME280;34422;45.802;16.114;2022-12-18T05:19:57;102072.59;;;-1.28;100.00
48624;BME280;34422;45.802;16.114;2022-12-18T05:22:24;102072.44;;;-1.25;100.00
48624;BME280;34422;45.802;16.114;2022-12-18T05:24:52;102077.91;;;-1.28;100.00
48624;BME280;34422;45.802;16.114;2022-12-18T05:27:19;102086.66;;;-1.26;100.00
48624;BME280;34422;45.802;16.114;2022-12-18T05:29:47;102088.16;;;-1.22;100.00
48624;BME280;34422;45.802;16.114;2022-12-18T05:32:13;102090.63;;;-1.19;100.00
48624;BME280;34422;45.802;16.114;2022-12-18T05:34:40;102083.59;;;-1.20;100.00
48624;BME280;34422;45.802;16.114;2022-12-18T05:37:07;102094.81;;;-1.15;100.00
48624;BME280;34422;45.802;16.114;2022-12-18T05:39:34;102096.34;;;-1.11;100.00
48624;BME280;34422;45.802;16.114;2022-12-18T05:42:00;102106.78;;;-1.08;100.00
48624;BME280;34422;45.802;16.114;2022-12-18T05:44:27;102102.13;;;-1.04;100.00
48624;BME280;34422;45.802;16.114;2022-12-18T05:46:54;102106.22;;;-0.98;100.00
48624;BME280;34422;45.802;16.114;2022-12-18T05:49:21;102113.03;;;-0.94;100.00
48624;BME280;34422;45.802;16.114;2022-12-18T05:51:47;102115.69;;;-0.94;100.00
48624;BME280;34422;45.802;16.114;2022-12-18T05:54:14;102125.13;;;-0.89;100.00
48624;BME280;34422;45.802;16.114;2022-12-18T05:56:41;102131.38;;;-0.90;100.00
48624;BME280;34422;45.802;16.114;2022-12-18T05:59:08;102137.56;;;-0.89;100.00
48624;BME280;34422;45.802;16.114;2022-12-18T06:01:35;102130.91;;;-0.96;100.00
48624;BME280;34422;45.802;16.114;2022-12-18T06:04:02;102144.66;;;-0.90;100.00
48624;BME280;34422;45.802;16.114;2022-12-18T06:06:29;102154.34;;;-0.89;100.00
48624;BME280;34422;45.802;16.114;2022-12-18T06:08:56;102153.41;;;-0.88;100.00
48624;BME280;34422;45.802;16.114;2022-12-18T06:11:25;102146.47;;;-0.90;100.00
48624;BME280;34422;45.802;16.114;2022-12-18T06:13:54;102171.16;;;-0.88;100.00
48624;BME280;34422;45.802;16.114;2022-12-18T06:16:21;102168.75;;;-0.93;100.00
48624;BME280;34422;45.802;16.114;2022-12-18T06:18:48;102181.78;;;-0.88;100.00
48624;BME280;34422;45.802;16.114;2022-12-18T06:21:15;102167.56;;;-0.87;100.00
48624;BME280;34422;45.802;16.114;2022-12-18T06:23:42;102167.38;;;-0.84;100.00
48624;BME280;34422;45.802;16.114;2022-12-18T06:26:11;102170.13;;;-0.86;100.00
48624;BME280;34422;45.802;16.114;2022-12-18T06:28:38;102170.03;;;-0.84;100.00
48624;BME280;34422;45.802;16.114;2022-12-18T06:31:06;102169.25;;;-0.86;100.00
48624;BME280;34422;45.802;16.114;2022-12-18T06:33:34;102179.72;;;-0.83;100.00
48624;BME280;34422;45.802;16.114;2022-12-18T06:36:04;102177.06;;;-0.83;100.00
48624;BME280;34422;45.802;16.114;2022-12-18T06:38:32;102169.25;;;-0.86;100.00
48624;BME280;34422;45.802;16.114;2022-12-18T06:40:59;102173.91;;;-0.90;100.00
48624;BME280;34422;45.802;16.114;2022-12-18T06:43:26;102167.63;;;-0.89;100.00
48624;BME280;34422;45.802;16.114;2022-12-18T06:45:59;102177.50;;;-0.91;100.00
48624;BME280;34422;45.802;16.114;2022-12-18T06:48:29;102183.75;;;-0.92;100.00
48624;BME280;34422;45.802;16.114;2022-12-18T06:50:56;102176.81;;;-0.94;100.00
48624;BME280;34422;45.802;16.114;2022-12-18T06:53:23;102179.88;;;-1.00;100.00
48624;BME280;34422;45.802;16.114;2022-12-18T06:55:50;102176.63;;;-1.05;100.00
48624;BME280;34422;45.802;16.114;2022-12-18T06:58:16;102191.59;;;-1.04;100.00
48624;BME280;34422;45.802;16.114;2022-12-18T07:00:43;102195.28;;;-1.07;100.00
48624;BME280;34422;45.802;16.114;2022-12-18T07:03:10;102202.63;;;-1.11;100.00
48624;BME280;34422;45.802;16.114;2022-12-18T07:05:40;102200.91;;;-1.12;100.00
48624;BME280;34422;45.802;16.114;2022-12-18T07:08:07;102195.22;;;-1.05;100.00
48624;BME280;34422;45.802;16.114;2022-12-18T07:10:40;102201.38;;;-1.05;100.00
48624;BME280;34422;45.802;16.114;2022-12-18T07:13:08;102205.84;;;-1.05;100.00
48624;BME280;34422;45.802;16.114;2022-12-18T07:15:35;102219.91;;;-1.03;100.00
48624;BME280;34422;45.802;16.114;2022-12-18T07:18:02;102213.16;;;-0.95;100.00
48624;BME280;34422;45.802;16.114;2022-12-18T07:20:28;102215.16;;;-0.98;100.00
48624;BME280;34422;45.802;16.114;2022-12-18T07:22:55;102207.00;;;-0.95;100.00
48624;BME280;34422;45.802;16.114;2022-12-18T07:25:22;102220.88;;;-0.90;100.00
48624;BME280;34422;45.802;16.114;2022-12-18T07:27:49;102213.84;;;-0.91;100.00
48624;BME280;34422;45.802;16.114;2022-12-18T07:30:15;102221.84;;;-0.77;100.00
48624;BME280;34422;45.802;16.114;2022-12-18T07:32:42;102227.69;;;-0.70;100.00
48624;BME280;34422;45.802;16.114;2022-12-18T07:35:09;102229.50;;;-0.57;100.00
48624;BME280;34422;45.802;16.114;2022-12-18T07:37:36;102235.19;;;-0.49;100.00
48624;BME280;34422;45.802;16.114;2022-12-18T07:40:03;102227.50;;;-0.39;100.00
48624;BME280;34422;45.802;16.114;2022-12-18T07:42:29;102236.91;;;-0.19;100.00
48624;BME280;34422;45.802;16.114;2022-12-18T07:44:59;102241.19;;;-0.17;100.00
48624;BME280;34422;45.802;16.114;2022-12-18T07:47:42;102241.28;;;-0.18;100.00
48624;BME280;34422;45.802;16.114;2022-12-18T07:50:09;102253.66;;;-0.17;100.00
48624;BME280;34422;45.802;16.114;2022-12-18T07:52:36;102255.47;;;-0.18;100.00
48624;BME280;34422;45.802;16.114;2022-12-18T07:55:03;102264.13;;;-0.14;100.00
48624;BME280;34422;45.802;16.114;2022-12-18T07:57:29;102256.31;;;-0.17;100.00
48624;BME280;34422;45.802;16.114;2022-12-18T07:59:56;102266.19;;;-0.19;100.00
48624;BME280;34422;45.802;16.114;2022-12-18T08:02:23;102266.78;;;0.00;100.00
48624;BME280;34422;45.802;16.114;2022-12-18T08:04:50;102276.63;;;0.26;100.00
48624;BME280;34422;45.802;16.114;2022-12-18T08:07:19;102281.28;;;0.09;100.00
48624;BME280;34422;45.802;16.114;2022-12-18T08:09:46;102278.63;;;0.09;100.00
48624;BME280;34422;45.802;16.114;2022-12-18T08:12:13;102285.56;;;0.25;100.00
48624;BME280;34422;45.802;16.114;2022-12-18T08:14:40;102297.63;;;0.72;100.00
48624;BME280;34422;45.802;16.114;2022-12-18T08:17:07;102305.00;;;0.95;100.00
48624;BME280;34422;45.802;16.114;2022-12-18T08:19:34;102304.44;;;0.90;100.00
48624;BME280;34422;45.802;16.114;2022-12-18T08:22:00;102303.06;;;0.97;100.00
48624;BME280;34422;45.802;16.114;2022-12-18T08:24:27;102300.78;;;1.05;100.00
48624;BME280;34422;45.802;16.114;2022-12-18T08:26:54;102292.06;;;1.29;100.00
48624;BME280;34422;45.802;16.114;2022-12-18T08:29:21;102286.03;;;1.52;100.00
48624;BME280;34422;45.802;16.114;2022-12-18T08:31:48;102290.19;;;2.07;100.00
48624;BME280;34422;45.802;16.114;2022-12-18T08:34:15;102288.19;;;2.60;100.00
48624;BME280;34422;45.802;16.114;2022-12-18T08:36:41;102293.13;;;2.77;100.00
48624;BME280;34422;45.802;16.114;2022-12-18T08:39:08;102291.91;;;3.29;100.00
48624;BME280;34422;45.802;16.114;2022-12-18T08:41:35;102299.88;;;3.87;100.00
48624;BME280;34422;45.802;16.114;2022-12-18T08:44:02;102295.50;;;3.40;100.00
48624;BME280;34422;45.802;16.114;2022-12-18T08:46:47;102293.31;;;3.10;100.00
48624;BME280;34422;45.802;16.114;2022-12-18T08:49:14;102288.53;;;3.27;100.00
48624;BME280;34422;45.802;16.114;2022-12-18T08:51:41;102299.66;;;3.55;100.00
48624;BME280;34422;45.802;16.114;2022-12-18T08:54:13;102297.69;;;3.92;100.00
48624;BME280;34422;45.802;16.114;2022-12-18T08:56:40;102294.50;;;3.99;100.00
48624;BME280;34422;45.802;16.114;2022-12-18T08:59:08;102293.25;;;3.23;100.00
48624;BME280;34422;45.802;16.114;2022-12-18T09:01:35;102300.13;;;2.67;100.00
48624;BME280;34422;45.802;16.114;2022-12-18T09:04:02;102293.75;;;2.57;100.00
48624;BME280;34422;45.802;16.114;2022-12-18T09:06:29;102298.72;;;2.25;100.00
48624;BME280;34422;45.802;16.114;2022-12-18T09:08:56;102300.22;;;2.29;100.00
48624;BME280;34422;45.802;16.114;2022-12-18T09:11:26;102309.66;;;1.96;100.00
48624;BME280;34422;45.802;16.114;2022-12-18T09:13:54;102318.97;;;1.91;100.00
48624;BME280;34422;45.802;16.114;2022-12-18T09:16:22;102319.25;;;1.73;100.00
48624;BME280;34422;45.802;16.114;2022-12-18T09:18:50;102319.66;;;1.67;100.00
48624;BME280;34422;45.802;16.114;2022-12-18T09:21:19;102324.56;;;1.48;100.00
48624;BME280;34422;45.802;16.114;2022-12-18T09:23:50;102319.63;;;1.42;100.00
48624;BME280;34422;45.802;16.114;2022-12-18T09:26:17;102327.56;;;1.56;100.00
48624;BME280;34422;45.802;16.114;2022-12-18T09:28:44;102326.91;;;1.65;100.00
48624;BME280;34422;45.802;16.114;2022-12-18T09:31:12;102320.72;;;1.65;100.00
48624;BME280;34422;45.802;16.114;2022-12-18T09:33:41;102322.03;;;1.72;100.00
48624;BME280;34422;45.802;16.114;2022-12-18T09:36:09;102326.91;;;1.65;100.00
48624;BME280;34422;45.802;16.114;2022-12-18T09:38:37;102320.41;;;1.57;100.00
48624;BME280;34422;45.802;16.114;2022-12-18T09:43:51;102320.31;;;1.58;100.00
48624;BME280;34422;45.802;16.114;2022-12-18T09:46:27;102306.66;;;1.75;100.00
48624;BME280;34422;45.802;16.114;2022-12-18T09:48:59;102290.88;;;1.72;100.00
48624;BME280;34422;45.802;16.114;2022-12-18T09:51:36;102295.56;;;1.82;100.00
48624;BME280;34422;45.802;16.114;2022-12-18T09:54:07;102309.13;;;1.91;100.00
48624;BME280;34422;45.802;16.114;2022-12-18T09:56:41;102311.56;;;1.94;100.00
48624;BME280;34422;45.802;16.114;2022-12-18T09:59:46;102309.97;;;2.04;100.00
48624;BME280;34422;45.802;16.114;2022-12-18T10:02:24;102310.28;;;2.00;100.00
48624;BME280;34422;45.802;16.114;2022-12-18T10:05:11;102298.56;;;2.02;100.00
48624;BME280;34422;45.802;16.114;2022-12-18T10:07:55;102302.94;;;2.03;100.00
48624;BME280;34422;45.802;16.114;2022-12-18T10:10:39;102304.19;;;1.98;100.00
48624;BME280;34422;45.802;16.114;2022-12-18T10:13:23;102301.75;;;1.95;100.00
48624;BME280;34422;45.802;16.114;2022-12-18T10:16:09;102300.13;;;1.92;100.00
48624;BME280;34422;45.802;16.114;2022-12-18T10:24:50;102300.88;;;2.07;100.00
48624;BME280;34422;45.802;16.114;2022-12-18T10:27:25;102292.25;;;2.16;100.00
48624;BME280;34422;45.802;16.114;2022-12-18T10:29:53;102295.28;;;2.35;100.00
48624;BME280;34422;45.802;16.114;2022-12-18T10:32:23;102289.94;;;2.35;100.00
48624;BME280;34422;45.802;16.114;2022-12-18T10:34:53;102284.16;;;2.41;100.00
48624;BME280;34422;45.802;16.114;2022-12-18T10:37:24;102294.84;;;2.41;100.00
48624;BME280;34422;45.802;16.114;2022-12-18T10:40:14;102295.53;;;2.32;100.00
48624;BME280;34422;45.802;16.114;2022-12-18T10:42:42;102284.56;;;2.48;100.00
48624;BME280;34422;45.802;16.114;2022-12-18T10:45:13;102264.53;;;2.30;100.00
48624;BME280;34422;45.802;16.114;2022-12-18T10:47:46;102271.91;;;2.26;100.00
48624;BME280;34422;45.802;16.114;2022-12-18T10:50:30;102275.59;;;2.49;100.00
48624;BME280;34422;45.802;16.114;2022-12-18T10:53:00;102267.81;;;2.33;100.00
48624;BME280;34422;45.802;16.114;2022-12-18T10:55:32;102268.44;;;2.49;100.00
48624;BME280;34422;45.802;16.114;2022-12-18T10:58:26;102261.16;;;2.52;100.00
48624;BME280;34422;45.802;16.114;2022-12-18T11:01:16;102261.16;;;2.52;100.00
48624;BME280;34422;45.802;16.114;2022-12-18T11:03:58;102267.25;;;2.54;100.00
48624;BME280;34422;45.802;16.114;2022-12-18T11:06:25;102268.66;;;2.46;100.00
48624;BME280;34422;45.802;16.114;2022-12-18T11:09:17;102262.28;;;2.60;100.00
48624;BME280;34422;45.802;16.114;2022-12-18T11:11:50;102248.94;;;2.60;100.00
48624;BME280;34422;45.802;16.114;2022-12-18T11:14:24;102251.28;;;2.65;100.00
48624;BME280;34422;45.802;16.114;2022-12-18T11:16:53;102251.31;;;2.76;100.00
48624;BME280;34422;45.802;16.114;2022-12-18T11:19:28;102243.41;;;2.74;100.00
48624;BME280;34422;45.802;16.114;2022-12-18T11:21:56;102252.00;;;2.67;100.00
48624;BME280;34422;45.802;16.114;2022-12-18T11:26:58;102252.47;;;2.84;100.00
48624;BME280;34422;45.802;16.114;2022-12-18T11:29:31;102251.09;;;2.79;100.00
48624;BME280;34422;45.802;16.114;2022-12-18T11:32:25;102251.06;;;2.68;100.00
48624;BME280;34422;45.802;16.114;2022-12-18T11:35:03;102248.91;;;2.73;100.00
48624;BME280;34422;45.802;16.114;2022-12-18T11:37:32;102245.22;;;2.87;100.00
48624;BME280;34422;45.802;16.114;2022-12-18T11:40:03;102233.19;;;2.92;100.00
48624;BME280;34422;45.802;16.114;2022-12-18T11:42:50;102240.75;;;2.98;100.00
48624;BME280;34422;45.802;16.114;2022-12-18T11:45:27;102238.19;;;2.97;100.00
48624;BME280;34422;45.802;16.114;2022-12-18T11:48:33;102236.25;;;2.99;100.00
48624;BME280;34422;45.802;16.114;2022-12-18T11:51:03;102236.78;;;2.80;100.00
48624;BME280;34422;45.802;16.114;2022-12-18T11:53:31;102238.75;;;2.89;100.00
48624;BME280;34422;45.802;16.114;2022-12-18T12:04:24;102236.03;;;2.78;100.00
48624;BME280;34422;45.802;16.114;2022-12-18T12:15:26;102237.19;;;3.21;100.00
48624;BME280;34422;45.802;16.114;2022-12-18T12:23:45;102213.03;;;2.99;100.00
48624;BME280;34422;45.802;16.114;2022-12-18T12:34:50;102212.22;;;3.10;100.00
48624;BME280;34422;45.802;16.114;2022-12-18T12:40:19;102202.28;;;3.12;100.00
48624;BME280;34422;45.802;16.114;2022-12-18T12:45:49;102209.97;;;3.28;100.00
48624;BME280;34422;45.802;16.114;2022-12-18T12:48:31;102205.84;;;3.35;100.00
48624;BME280;34422;45.802;16.114;2022-12-18T12:51:09;102191.84;;;3.42;100.00
48624;BME280;34422;45.802;16.114;2022-12-18T12:53:37;102192.69;;;3.32;100.00
48624;BME280;34422;45.802;16.114;2022-12-18T12:56:07;102193.44;;;3.34;100.00
48624;BME280;34422;45.802;16.114;2022-12-18T13:01:53;102198.78;;;3.34;100.00
48624;BME280;34422;45.802;16.114;2022-12-18T13:04:29;102197.81;;;3.35;100.00
48624;BME280;34422;45.802;16.114;2022-12-18T13:13:00;102201.47;;;3.45;100.00
48624;BME280;34422;45.802;16.114;2022-12-18T13:25:46;102211.66;;;3.29;100.00
48624;BME280;34422;45.802;16.114;2022-12-18T13:28:14;102211.66;;;3.29;100.00
48624;BME280;34422;45.802;16.114;2022-12-18T13:30:48;102220.59;;;3.40;100.00
48624;BME280;34422;45.802;16.114;2022-12-18T13:35:53;102223.38;;;3.39;100.00
48624;BME280;34422;45.802;16.114;2022-12-18T13:38:39;102227.25;;;3.35;100.00
48624;BME280;34422;45.802;16.114;2022-12-18T13:43:52;102230.88;;;3.34;100.00
48624;BME280;34422;45.802;16.114;2022-12-18T13:46:24;102227.47;;;3.32;100.00
48624;BME280;34422;45.802;16.114;2022-12-18T13:51:48;102212.59;;;3.16;100.00
48624;BME280;34422;45.802;16.114;2022-12-18T13:54:36;102215.00;;;3.08;100.00
48624;BME280;34422;45.802;16.114;2022-12-18T13:57:04;102218.66;;;3.07;100.00
48624;BME280;34422;45.802;16.114;2022-12-18T13:59:37;102215.00;;;3.08;100.00
48624;BME280;34422;45.802;16.114;2022-12-18T14:02:18;102214.59;;;3.02;100.00
48624;BME280;34422;45.802;16.114;2022-12-18T14:04:48;102216.69;;;2.98;100.00
48624;BME280;34422;45.802;16.114;2022-12-18T14:07:19;102224.53;;;2.89;100.00
48624;BME280;34422;45.802;16.114;2022-12-18T14:10:01;102230.72;;;2.89;100.00
48624;BME280;34422;45.802;16.114;2022-12-18T14:12:31;102231.84;;;2.87;100.00
48624;BME280;34422;45.802;16.114;2022-12-18T14:18:01;102244.06;;;2.78;100.00
48624;BME280;34422;45.802;16.114;2022-12-18T14:20:32;102247.91;;;2.74;100.00
48624;BME280;34422;45.802;16.114;2022-12-18T14:23:00;102259.81;;;2.70;100.00
48624;BME280;34422;45.802;16.114;2022-12-18T14:25:29;102266.63;;;2.74;100.00
48624;BME280;34422;45.802;16.114;2022-12-18T14:30:40;102262.81;;;2.65;100.00
48624;BME280;34422;45.802;16.114;2022-12-18T14:33:25;102266.81;;;2.60;100.00